sensor_id;sensor_type;location;lat;lon;timestamp;P1;durP1;ratioP1;P2;durP2;ratioP2
40453;SDS011;26160;51.858;4.398;2022-08-07T00:01:11;1.85;;;1.60;;
40453;SDS011;26160;51.858;4.398;2022-08-07T00:03:38;2.13;;;1.55;;
40453;SDS011;26160;51.858;4.398;2022-08-07T00:06:04;3.95;;;1.70;;
40453;SDS011;26160;51.858;4.398;2022-08-07T00:08:30;3.33;;;1.65;;
40453;SDS011;26160;51.858;4.398;2022-08-07T00:10:56;3.00;;;1.70;;
40453;SDS011;26160;51.858;4.398;2022-08-07T00:13:23;3.70;;;1.73;;
40453;SDS011;26160;51.858;4.398;2022-08-07T00:15:49;2.10;;;1.70;;
40453;SDS011;26160;51.858;4.398;2022-08-07T00:18:17;3.13;;;1.73;;
40453;SDS011;26160;51.858;4.398;2022-08-07T00:20:44;3.20;;;1.90;;
40453;SDS011;26160;51.858;4.398;2022-08-07T00:23:10;2.25;;;1.42;;
40453;SDS011;26160;51.858;4.398;2022-08-07T00:25:37;3.17;;;1.90;;
40453;SDS011;26160;51.858;4.398;2022-08-07T00:28:03;2.05;;;1.75;;
40453;SDS011;26160;51.858;4.398;2022-08-07T00:30:29;2.88;;;1.65;;
40453;SDS011;26160;51.858;4.398;2022-08-07T00:32:55;2.00;;;1.50;;
40453;SDS011;26160;51.858;4.398;2022-08-07T00:35:22;1.98;;;1.60;;
40453;SDS011;26160;51.858;4.398;2022-08-07T00:37:49;2.28;;;1.60;;
40453;SDS011;26160;51.858;4.398;2022-08-07T00:40:15;2.28;;;1.73;;
40453;SDS011;26160;51.858;4.398;2022-08-07T00:42:42;2.38;;;1.70;;
40453;SDS011;26160;51.858;4.398;2022-08-07T00:45:09;2.83;;;1.85;;
40453;SDS011;26160;51.858;4.398;2022-08-07T00:47:36;3.28;;;1.80;;
40453;SDS011;26160;51.858;4.398;2022-08-07T00:50:03;1.77;;;1.63;;
40453;SDS011;26160;51.858;4.398;2022-08-07T00:52:30;1.92;;;1.60;;
40453;SDS011;26160;51.858;4.398;2022-08-07T00:54:56;2.72;;;1.63;;
40453;SDS011;26160;51.858;4.398;2022-08-07T00:57:23;1.70;;;1.60;;
40453;SDS011;26160;51.858;4.398;2022-08-07T00:59:50;3.28;;;1.85;;
40453;SDS011;26160;51.858;4.398;2022-08-07T01:02:16;2.92;;;2.17;;
40453;SDS011;26160;51.858;4.398;2022-08-07T01:04:43;2.38;;;1.67;;
40453;SDS011;26160;51.858;4.398;2022-08-07T01:07:11;2.33;;;1.63;;
40453;SDS011;26160;51.858;4.398;2022-08-07T01:09:37;2.95;;;1.75;;
40453;SDS011;26160;51.858;4.398;2022-08-07T01:12:03;2.33;;;1.90;;
40453;SDS011;26160;51.858;4.398;2022-08-07T01:14:30;2.53;;;1.80;;
40453;SDS011;26160;51.858;4.398;2022-08-07T01:16:56;3.50;;;2.00;;
40453;SDS011;26160;51.858;4.398;2022-08-07T01:19:22;2.55;;;2.00;;
40453;SDS011;26160;51.858;4.398;2022-08-07T01:21:51;1.83;;;1.70;;
40453;SDS011;26160;51.858;4.398;2022-08-07T01:24:18;4.45;;;2.00;;
40453;SDS011;26160;51.858;4.398;2022-08-07T01:26:45;2.45;;;1.90;;
40453;SDS011;26160;51.858;4.398;2022-08-07T01:29:12;2.88;;;1.88;;
40453;SDS011;26160;51.858;4.398;2022-08-07T01:31:38;3.22;;;1.83;;
40453;SDS011;26160;51.858;4.398;2022-08-07T01:34:05;2.60;;;1.83;;
40453;SDS011;26160;51.858;4.398;2022-08-07T01:36:31;2.20;;;1.70;;
40453;SDS011;26160;51.858;4.398;2022-08-07T01:38:58;5.05;;;2.65;;
40453;SDS011;26160;51.858;4.398;2022-08-07T01:41:24;3.15;;;1.95;;
40453;SDS011;26160;51.858;4.398;2022-08-07T01:43:52;2.17;;;1.58;;
40453;SDS011;26160;51.858;4.398;2022-08-07T01:46:18;3.40;;;2.28;;
40453;SDS011;26160;51.858;4.398;2022-08-07T01:48:45;2.28;;;1.80;;
40453;SDS011;26160;51.858;4.398;2022-08-07T01:51:15;1.80;;;1.70;;
40453;SDS011;26160;51.858;4.398;2022-08-07T01:53:45;3.45;;;2.38;;
40453;SDS011;26160;51.858;4.398;2022-08-07T01:56:15;3.35;;;1.73;;
40453;SDS011;26160;51.858;4.398;2022-08-07T01:58:47;2.10;;;1.90;;
40453;SDS011;26160;51.858;4.398;2022-08-07T02:01:23;2.15;;;1.95;;
40453;SDS011;26160;51.858;4.398;2022-08-07T02:04:25;3.03;;;2.10;;
40453;SDS011;26160;51.858;4.398;2022-08-07T02:06:48;1.88;;;1.73;;
40453;SDS011;26160;51.858;4.398;2022-08-07T02:09:16;3.35;;;2.15;;
40453;SDS011;26160;51.858;4.398;2022-08-07T02:11:45;2.13;;;1.88;;
40453;SDS011;26160;51.858;4.398;2022-08-07T02:14:14;2.42;;;1.77;;
40453;SDS011;26160;51.858;4.398;2022-08-07T02:16:42;3.45;;;2.28;;
40453;SDS011;26160;51.858;4.398;2022-08-07T02:19:12;3.03;;;2.15;;
40453;SDS011;26160;51.858;4.398;2022-08-07T02:21:39;2.67;;;1.95;;
40453;SDS011;26160;51.858;4.398;2022-08-07T02:24:06;3.88;;;1.80;;
40453;SDS011;26160;51.858;4.398;2022-08-07T02:26:34;2.08;;;1.80;;
40453;SDS011;26160;51.858;4.398;2022-08-07T02:29:02;2.72;;;2.33;;
40453;SDS011;26160;51.858;4.398;2022-08-07T02:31:31;2.28;;;1.88;;
40453;SDS011;26160;51.858;4.398;2022-08-07T02:33:59;1.70;;;1.60;;
40453;SDS011;26160;51.858;4.398;2022-08-07T02:36:26;2.80;;;2.00;;
40453;SDS011;26160;51.858;4.398;2022-08-07T02:38:57;1.70;;;1.60;;
40453;SDS011;26160;51.858;4.398;2022-08-07T02:41:26;1.80;;;1.70;;
40453;SDS011;26160;51.858;4.398;2022-08-07T02:43:53;2.70;;;2.40;;
40453;SDS011;26160;51.858;4.398;2022-08-07T02:46:22;2.75;;;1.83;;
40453;SDS011;26160;51.858;4.398;2022-08-07T02:48:50;2.22;;;1.88;;
40453;SDS011;26160;51.858;4.398;2022-08-07T02:51:17;3.10;;;1.90;;
40453;SDS011;26160;51.858;4.398;2022-08-07T02:53:47;2.38;;;2.17;;
40453;SDS011;26160;51.858;4.398;2022-08-07T02:56:19;3.65;;;1.90;;
40453;SDS011;26160;51.858;4.398;2022-08-07T02:58:48;3.58;;;2.08;;
40453;SDS011;26160;51.858;4.398;2022-08-07T03:01:17;2.80;;;2.08;;
40453;SDS011;26160;51.858;4.398;2022-08-07T03:03:47;2.38;;;1.83;;
40453;SDS011;26160;51.858;4.398;2022-08-07T03:06:15;3.45;;;2.00;;
40453;SDS011;26160;51.858;4.398;2022-08-07T03:08:43;2.88;;;1.80;;
40453;SDS011;26160;51.858;4.398;2022-08-07T03:11:09;3.63;;;2.10;;
40453;SDS011;26160;51.858;4.398;2022-08-07T03:13:36;2.83;;;2.17;;
40453;SDS011;26160;51.858;4.398;2022-08-07T03:16:02;3.58;;;1.90;;
40453;SDS011;26160;51.858;4.398;2022-08-07T03:18:28;2.35;;;2.13;;
40453;SDS011;26160;51.858;4.398;2022-08-07T03:20:55;2.00;;;1.80;;
40453;SDS011;26160;51.858;4.398;2022-08-07T03:23:23;2.10;;;1.90;;
40453;SDS011;26160;51.858;4.398;2022-08-07T03:25:52;2.50;;;2.00;;
40453;SDS011;26160;51.858;4.398;2022-08-07T03:28:20;2.40;;;2.03;;
40453;SDS011;26160;51.858;4.398;2022-08-07T03:30:46;1.92;;;1.73;;
40453;SDS011;26160;51.858;4.398;2022-08-07T03:33:14;3.40;;;2.17;;
40453;SDS011;26160;51.858;4.398;2022-08-07T03:35:41;2.85;;;2.00;;
40453;SDS011;26160;51.858;4.398;2022-08-07T03:38:09;2.92;;;2.00;;
40453;SDS011;26160;51.858;4.398;2022-08-07T03:40:36;3.55;;;2.25;;
40453;SDS011;26160;51.858;4.398;2022-08-07T03:43:03;2.58;;;2.20;;
40453;SDS011;26160;51.858;4.398;2022-08-07T03:45:30;2.63;;;2.10;;
40453;SDS011;26160;51.858;4.398;2022-08-07T03:47:57;5.70;;;2.38;;
40453;SDS011;26160;51.858;4.398;2022-08-07T03:50:24;4.82;;;3.53;;
40453;SDS011;26160;51.858;4.398;2022-08-07T03:52:51;5.05;;;3.47;;
40453;SDS011;26160;51.858;4.398;2022-08-07T03:55:20;2.75;;;2.35;;
40453;SDS011;26160;51.858;4.398;2022-08-07T03:57:46;2.55;;;2.35;;
40453;SDS011;26160;51.858;4.398;2022-08-07T04:00:14;4.15;;;2.55;;
40453;SDS011;26160;51.858;4.398;2022-08-07T04:02:41;2.10;;;1.88;;
40453;SDS011;26160;51.858;4.398;2022-08-07T04:05:09;4.10;;;2.30;;
40453;SDS011;26160;51.858;4.398;2022-08-07T04:07:35;3.92;;;2.30;;
40453;SDS011;26160;51.858;4.398;2022-08-07T04:10:04;4.40;;;2.33;;
40453;SDS011;26160;51.858;4.398;2022-08-07T04:12:31;4.22;;;2.08;;
40453;SDS011;26160;51.858;4.398;2022-08-07T04:14:57;4.00;;;2.33;;
40453;SDS011;26160;51.858;4.398;2022-08-07T04:17:27;3.42;;;2.10;;
40453;SDS011;26160;51.858;4.398;2022-08-07T04:19:53;7.45;;;2.40;;
40453;SDS011;26160;51.858;4.398;2022-08-07T04:22:20;2.13;;;1.70;;
40453;SDS011;26160;51.858;4.398;2022-08-07T04:24:48;2.55;;;2.03;;
40453;SDS011;26160;51.858;4.398;2022-08-07T04:27:15;3.60;;;2.60;;
40453;SDS011;26160;51.858;4.398;2022-08-07T04:29:42;4.53;;;2.33;;
40453;SDS011;26160;51.858;4.398;2022-08-07T04:32:09;2.83;;;2.15;;
40453;SDS011;26160;51.858;4.398;2022-08-07T04:34:35;3.42;;;2.25;;
40453;SDS011;26160;51.858;4.398;2022-08-07T04:37:02;3.25;;;2.03;;
40453;SDS011;26160;51.858;4.398;2022-08-07T04:39:31;6.85;;;2.22;;
40453;SDS011;26160;51.858;4.398;2022-08-07T04:41:57;2.83;;;2.30;;
40453;SDS011;26160;51.858;4.398;2022-08-07T04:44:28;2.30;;;2.03;;
40453;SDS011;26160;51.858;4.398;2022-08-07T04:47:15;2.17;;;1.98;;
40453;SDS011;26160;51.858;4.398;2022-08-07T04:49:57;2.60;;;2.28;;
40453;SDS011;26160;51.858;4.398;2022-08-07T04:57:48;2.33;;;2.13;;
40453;SDS011;26160;51.858;4.398;2022-08-07T05:00:16;3.47;;;2.10;;
40453;SDS011;26160;51.858;4.398;2022-08-07T05:03:01;3.28;;;2.65;;
40453;SDS011;26160;51.858;4.398;2022-08-07T05:05:41;2.40;;;2.20;;
40453;SDS011;26160;51.858;4.398;2022-08-07T05:08:34;2.83;;;2.22;;
40453;SDS011;26160;51.858;4.398;2022-08-07T05:11:10;2.60;;;2.20;;
40453;SDS011;26160;51.858;4.398;2022-08-07T05:13:50;3.72;;;2.08;;
40453;SDS011;26160;51.858;4.398;2022-08-07T05:16:30;3.97;;;2.47;;
40453;SDS011;26160;51.858;4.398;2022-08-07T05:19:01;3.65;;;2.50;;
40453;SDS011;26160;51.858;4.398;2022-08-07T05:24:00;2.65;;;2.30;;
40453;SDS011;26160;51.858;4.398;2022-08-07T05:26:30;4.65;;;2.45;;
40453;SDS011;26160;51.858;4.398;2022-08-07T05:28:59;3.03;;;2.53;;
40453;SDS011;26160;51.858;4.398;2022-08-07T05:31:27;2.75;;;2.08;;
40453;SDS011;26160;51.858;4.398;2022-08-07T05:34:03;4.10;;;2.75;;
40453;SDS011;26160;51.858;4.398;2022-08-07T05:36:32;3.55;;;2.80;;
40453;SDS011;26160;51.858;4.398;2022-08-07T05:38:59;3.72;;;3.08;;
40453;SDS011;26160;51.858;4.398;2022-08-07T05:41:26;3.38;;;3.08;;
40453;SDS011;26160;51.858;4.398;2022-08-07T05:43:53;6.78;;;3.15;;
40453;SDS011;26160;51.858;4.398;2022-08-07T05:46:21;4.22;;;3.08;;
40453;SDS011;26160;51.858;4.398;2022-08-07T05:48:48;4.20;;;3.00;;
40453;SDS011;26160;51.858;4.398;2022-08-07T05:51:15;4.10;;;2.85;;
40453;SDS011;26160;51.858;4.398;2022-08-07T05:53:43;5.93;;;3.22;;
40453;SDS011;26160;51.858;4.398;2022-08-07T05:56:09;6.80;;;4.03;;
40453;SDS011;26160;51.858;4.398;2022-08-07T05:58:38;4.70;;;3.58;;
40453;SDS011;26160;51.858;4.398;2022-08-07T06:01:06;4.60;;;3.83;;
40453;SDS011;26160;51.858;4.398;2022-08-07T06:03:34;5.07;;;3.97;;
40453;SDS011;26160;51.858;4.398;2022-08-07T06:06:02;4.03;;;3.63;;
40453;SDS011;26160;51.858;4.398;2022-08-07T06:08:30;4.70;;;4.20;;
40453;SDS011;26160;51.858;4.398;2022-08-07T06:10:57;6.32;;;4.05;;
40453;SDS011;26160;51.858;4.398;2022-08-07T06:13:23;4.40;;;4.00;;
40453;SDS011;26160;51.858;4.398;2022-08-07T06:15:50;4.88;;;3.75;;
40453;SDS011;26160;51.858;4.398;2022-08-07T06:18:18;5.40;;;3.92;;
40453;SDS011;26160;51.858;4.398;2022-08-07T06:20:46;4.78;;;4.15;;
40453;SDS011;26160;51.858;4.398;2022-08-07T06:23:12;5.78;;;4.03;;
40453;SDS011;26160;51.858;4.398;2022-08-07T06:25:39;5.38;;;4.25;;
40453;SDS011;26160;51.858;4.398;2022-08-07T06:28:07;5.30;;;4.63;;
40453;SDS011;26160;51.858;4.398;2022-08-07T06:30:35;8.35;;;4.65;;
40453;SDS011;26160;51.858;4.398;2022-08-07T06:33:03;6.10;;;4.25;;
40453;SDS011;26160;51.858;4.398;2022-08-07T06:35:30;6.13;;;3.60;;
40453;SDS011;26160;51.858;4.398;2022-08-07T06:37:58;7.53;;;3.40;;
40453;SDS011;26160;51.858;4.398;2022-08-07T06:40:25;6.25;;;3.70;;
40453;SDS011;26160;51.858;4.398;2022-08-07T06:42:54;5.43;;;3.50;;
40453;SDS011;26160;51.858;4.398;2022-08-07T06:45:22;4.28;;;3.45;;
40453;SDS011;26160;51.858;4.398;2022-08-07T06:47:49;4.68;;;4.05;;
40453;SDS011;26160;51.858;4.398;2022-08-07T06:50:15;5.18;;;3.80;;
40453;SDS011;26160;51.858;4.398;2022-08-07T06:52:42;4.32;;;3.13;;
40453;SDS011;26160;51.858;4.398;2022-08-07T06:55:18;6.10;;;4.15;;
40453;SDS011;26160;51.858;4.398;2022-08-07T06:57:49;4.78;;;3.67;;
40453;SDS011;26160;51.858;4.398;2022-08-07T07:00:17;4.32;;;3.47;;
40453;SDS011;26160;51.858;4.398;2022-08-07T07:02:44;3.83;;;3.53;;
40453;SDS011;26160;51.858;4.398;2022-08-07T07:05:12;5.43;;;3.22;;
40453;SDS011;26160;51.858;4.398;2022-08-07T07:07:39;4.70;;;3.33;;
40453;SDS011;26160;51.858;4.398;2022-08-07T07:10:05;3.65;;;3.10;;
40453;SDS011;26160;51.858;4.398;2022-08-07T07:12:39;5.63;;;3.90;;
40453;SDS011;26160;51.858;4.398;2022-08-07T07:15:20;4.85;;;4.07;;
40453;SDS011;26160;51.858;4.398;2022-08-07T07:18:08;5.78;;;3.63;;
40453;SDS011;26160;51.858;4.398;2022-08-07T07:20:56;5.03;;;3.67;;
40453;SDS011;26160;51.858;4.398;2022-08-07T07:23:27;4.13;;;3.20;;
40453;SDS011;26160;51.858;4.398;2022-08-07T07:26:01;5.82;;;2.83;;
40453;SDS011;26160;51.858;4.398;2022-08-07T07:28:34;5.00;;;2.75;;
40453;SDS011;26160;51.858;4.398;2022-08-07T07:31:09;3.20;;;2.80;;
40453;SDS011;26160;51.858;4.398;2022-08-07T07:33:43;5.82;;;2.33;;
40453;SDS011;26160;51.858;4.398;2022-08-07T07:36:10;3.10;;;2.40;;
40453;SDS011;26160;51.858;4.398;2022-08-07T07:38:37;3.22;;;2.55;;
40453;SDS011;26160;51.858;4.398;2022-08-07T07:41:06;5.55;;;2.45;;
40453;SDS011;26160;51.858;4.398;2022-08-07T07:43:35;3.00;;;2.17;;
40453;SDS011;26160;51.858;4.398;2022-08-07T07:46:06;2.38;;;2.03;;
40453;SDS011;26160;51.858;4.398;2022-08-07T07:48:33;4.85;;;2.30;;
40453;SDS011;26160;51.858;4.398;2022-08-07T07:51:01;2.53;;;2.28;;
40453;SDS011;26160;51.858;4.398;2022-08-07T07:53:29;2.97;;;2.25;;
40453;SDS011;26160;51.858;4.398;2022-08-07T07:55:57;4.10;;;2.50;;
40453;SDS011;26160;51.858;4.398;2022-08-07T07:58:25;5.22;;;2.53;;
40453;SDS011;26160;51.858;4.398;2022-08-07T08:00:56;2.33;;;2.08;;
40453;SDS011;26160;51.858;4.398;2022-08-07T08:03:23;3.67;;;2.40;;
40453;SDS011;26160;51.858;4.398;2022-08-07T08:05:50;3.42;;;2.35;;
40453;SDS011;26160;51.858;4.398;2022-08-07T08:08:17;2.45;;;2.00;;
40453;SDS011;26160;51.858;4.398;2022-08-07T08:10:45;2.95;;;2.33;;
40453;SDS011;26160;51.858;4.398;2022-08-07T08:13:12;3.35;;;2.22;;
40453;SDS011;26160;51.858;4.398;2022-08-07T08:15:42;2.30;;;2.10;;
40453;SDS011;26160;51.858;4.398;2022-08-07T08:18:12;3.72;;;2.03;;
40453;SDS011;26160;51.858;4.398;2022-08-07T08:20:40;2.20;;;2.00;;
40453;SDS011;26160;51.858;4.398;2022-08-07T08:23:09;2.28;;;1.80;;
40453;SDS011;26160;51.858;4.398;2022-08-07T08:25:55;2.58;;;2.08;;
40453;SDS011;26160;51.858;4.398;2022-08-07T08:28:43;3.22;;;2.17;;
40453;SDS011;26160;51.858;4.398;2022-08-07T08:31:10;3.85;;;2.33;;
40453;SDS011;26160;51.858;4.398;2022-08-07T08:33:40;3.53;;;1.83;;
40453;SDS011;26160;51.858;4.398;2022-08-07T08:36:08;5.38;;;1.75;;
40453;SDS011;26160;51.858;4.398;2022-08-07T08:38:39;6.22;;;1.90;;
40453;SDS011;26160;51.858;4.398;2022-08-07T08:54:40;2.17;;;1.60;;
40453;SDS011;26160;51.858;4.398;2022-08-07T08:57:18;2.90;;;1.58;;
40453;SDS011;26160;51.858;4.398;2022-08-07T08:59:57;3.47;;;1.30;;
40453;SDS011;26160;51.858;4.398;2022-08-07T09:02:36;1.92;;;1.40;;
40453;SDS011;26160;51.858;4.398;2022-08-07T09:05:16;1.70;;;1.60;;
40453;SDS011;26160;51.858;4.398;2022-08-07T09:08:37;1.50;;;1.40;;
40453;SDS011;26160;51.858;4.398;2022-08-07T09:16:17;3.75;;;1.25;;
40453;SDS011;26160;51.858;4.398;2022-08-07T09:27:08;2.45;;;1.20;;
40453;SDS011;26160;51.858;4.398;2022-08-07T09:30:06;2.35;;;1.10;;
40453;SDS011;26160;51.858;4.398;2022-08-07T09:32:54;3.05;;;1.42;;
40453;SDS011;26160;51.858;4.398;2022-08-07T09:35:50;1.20;;;1.10;;
40453;SDS011;26160;51.858;4.398;2022-08-07T09:38:44;2.05;;;1.30;;
40453;SDS011;26160;51.858;4.398;2022-08-07T09:44:20;2.47;;;1.27;;
40453;SDS011;26160;51.858;4.398;2022-08-07T09:50:24;1.63;;;1.13;;
40453;SDS011;26160;51.858;4.398;2022-08-07T09:52:58;2.80;;;0.88;;
40453;SDS011;26160;51.858;4.398;2022-08-07T10:10:08;3.97;;;1.33;;
40453;SDS011;26160;51.858;4.398;2022-08-07T10:15:34;2.08;;;1.23;;
40453;SDS011;26160;51.858;4.398;2022-08-07T10:20:48;2.13;;;1.20;;
40453;SDS011;26160;51.858;4.398;2022-08-07T10:48:15;1.42;;;1.00;;
40453;SDS011;26160;51.858;4.398;2022-08-07T10:50:52;1.77;;;1.23;;
40453;SDS011;26160;51.858;4.398;2022-08-07T10:53:44;1.20;;;1.10;;
40453;SDS011;26160;51.858;4.398;2022-08-07T11:05:07;1.63;;;1.13;;
40453;SDS011;26160;51.858;4.398;2022-08-07T11:16:20;6.63;;;1.42;;
40453;SDS011;26160;51.858;4.398;2022-08-07T11:19:04;3.33;;;1.58;;
40453;SDS011;26160;51.858;4.398;2022-08-07T11:21:45;3.28;;;1.02;;
40453;SDS011;26160;51.858;4.398;2022-08-07T11:24:32;2.65;;;1.40;;
40453;SDS011;26160;51.858;4.398;2022-08-07T11:30:06;2.03;;;1.10;;
40453;SDS011;26160;51.858;4.398;2022-08-07T11:32:39;3.00;;;1.20;;
40453;SDS011;26160;51.858;4.398;2022-08-07T11:35:20;1.90;;;1.25;;
40453;SDS011;26160;51.858;4.398;2022-08-07T11:43:28;3.47;;;1.65;;
40453;SDS011;26160;51.858;4.398;2022-08-07T11:54:32;4.18;;;1.20;;
40453;SDS011;26160;51.858;4.398;2022-08-07T12:05:27;2.28;;;1.17;;
40453;SDS011;26160;51.858;4.398;2022-08-07T12:08:08;1.30;;;1.10;;
40453;SDS011;26160;51.858;4.398;2022-08-07T12:10:48;2.10;;;1.20;;
40453;SDS011;26160;51.858;4.398;2022-08-07T12:13:39;4.13;;;1.10;;
40453;SDS011;26160;51.858;4.398;2022-08-07T12:16:30;3.00;;;1.10;;
40453;SDS011;26160;51.858;4.398;2022-08-07T12:22:31;0.90;;;0.80;;
40453;SDS011;26160;51.858;4.398;2022-08-07T12:28:26;1.40;;;0.80;;
40453;SDS011;26160;51.858;4.398;2022-08-07T12:31:10;2.78;;;1.05;;
40453;SDS011;26160;51.858;4.398;2022-08-07T12:33:41;2.70;;;0.80;;
40453;SDS011;26160;51.858;4.398;2022-08-07T12:36:11;2.00;;;0.98;;
40453;SDS011;26160;51.858;4.398;2022-08-07T12:38:39;1.67;;;0.82;;
40453;SDS011;26160;51.858;4.398;2022-08-07T12:41:09;1.08;;;0.65;;
40453;SDS011;26160;51.858;4.398;2022-08-07T12:43:37;1.80;;;0.93;;
40453;SDS011;26160;51.858;4.398;2022-08-07T12:51:40;1.30;;;0.95;;
40453;SDS011;26160;51.858;4.398;2022-08-07T12:54:25;2.92;;;1.20;;
40453;SDS011;26160;51.858;4.398;2022-08-07T12:56:57;2.03;;;1.38;;
40453;SDS011;26160;51.858;4.398;2022-08-07T12:59:27;2.60;;;1.33;;
40453;SDS011;26160;51.858;4.398;2022-08-07T13:02:12;1.58;;;1.20;;
40453;SDS011;26160;51.858;4.398;2022-08-07T13:18:38;3.13;;;1.40;;
40453;SDS011;26160;51.858;4.398;2022-08-07T13:21:21;2.80;;;1.48;;
40453;SDS011;26160;51.858;4.398;2022-08-07T13:26:45;4.00;;;1.38;;
40453;SDS011;26160;51.858;4.398;2022-08-07T13:30:10;4.00;;;1.13;;
40453;SDS011;26160;51.858;4.398;2022-08-07T13:32:22;2.60;;;1.60;;
40453;SDS011;26160;51.858;4.398;2022-08-07T13:35:18;2.95;;;1.40;;
40453;SDS011;26160;51.858;4.398;2022-08-07T13:40:33;2.75;;;1.58;;
40453;SDS011;26160;51.858;4.398;2022-08-07T13:43:04;6.20;;;1.73;;
40453;SDS011;26160;51.858;4.398;2022-08-07T13:45:33;3.42;;;1.20;;
40453;SDS011;26160;51.858;4.398;2022-08-07T13:48:01;4.45;;;1.55;;
40453;SDS011;26160;51.858;4.398;2022-08-07T13:50:29;3.33;;;1.20;;
40453;SDS011;26160;51.858;4.398;2022-08-07T13:52:56;4.60;;;1.45;;
40453;SDS011;26160;51.858;4.398;2022-08-07T13:55:23;2.85;;;1.05;;
40453;SDS011;26160;51.858;4.398;2022-08-07T13:58:04;3.17;;;1.45;;
40453;SDS011;26160;51.858;4.398;2022-08-07T14:00:51;2.22;;;1.52;;
40453;SDS011;26160;51.858;4.398;2022-08-07T14:03:19;1.65;;;1.20;;
40453;SDS011;26160;51.858;4.398;2022-08-07T14:05:49;1.55;;;1.17;;
40453;SDS011;26160;51.858;4.398;2022-08-07T14:08:16;5.22;;;1.77;;
40453;SDS011;26160;51.858;4.398;2022-08-07T14:10:48;2.85;;;1.13;;
40453;SDS011;26160;51.858;4.398;2022-08-07T14:13:21;2.67;;;1.42;;
40453;SDS011;26160;51.858;4.398;2022-08-07T14:15:54;1.85;;;1.10;;
40453;SDS011;26160;51.858;4.398;2022-08-07T14:18:39;1.50;;;1.00;;
40453;SDS011;26160;51.858;4.398;2022-08-07T14:21:13;3.10;;;1.30;;
40453;SDS011;26160;51.858;4.398;2022-08-07T14:24:03;3.70;;;1.30;;
40453;SDS011;26160;51.858;4.398;2022-08-07T14:26:38;2.05;;;1.13;;
40453;SDS011;26160;51.858;4.398;2022-08-07T14:29:12;5.70;;;1.58;;
40453;SDS011;26160;51.858;4.398;2022-08-07T14:31:44;1.80;;;1.30;;
40453;SDS011;26160;51.858;4.398;2022-08-07T14:34:13;5.28;;;1.33;;
40453;SDS011;26160;51.858;4.398;2022-08-07T14:36:41;2.88;;;1.50;;
40453;SDS011;26160;51.858;4.398;2022-08-07T14:39:08;1.25;;;0.98;;
40453;SDS011;26160;51.858;4.398;2022-08-07T14:41:35;2.15;;;1.00;;
40453;SDS011;26160;51.858;4.398;2022-08-07T14:44:05;1.25;;;0.90;;
40453;SDS011;26160;51.858;4.398;2022-08-07T14:46:34;3.75;;;1.40;;
40453;SDS011;26160;51.858;4.398;2022-08-07T14:49:03;2.72;;;1.08;;
40453;SDS011;26160;51.858;4.398;2022-08-07T14:51:30;2.90;;;1.25;;
40453;SDS011;26160;51.858;4.398;2022-08-07T14:53:58;1.88;;;1.00;;
40453;SDS011;26160;51.858;4.398;2022-08-07T14:56:27;2.95;;;1.27;;
40453;SDS011;26160;51.858;4.398;2022-08-07T14:58:56;1.85;;;1.23;;
40453;SDS011;26160;51.858;4.398;2022-08-07T15:01:31;1.77;;;1.50;;
40453;SDS011;26160;51.858;4.398;2022-08-07T15:04:04;2.40;;;1.08;;
40453;SDS011;26160;51.858;4.398;2022-08-07T15:06:32;3.45;;;1.60;;
40453;SDS011;26160;51.858;4.398;2022-08-07T15:09:03;3.90;;;1.40;;
40453;SDS011;26160;51.858;4.398;2022-08-07T15:11:36;3.78;;;1.40;;
40453;SDS011;26160;51.858;4.398;2022-08-07T15:14:07;4.45;;;1.92;;
40453;SDS011;26160;51.858;4.398;2022-08-07T15:16:37;3.42;;;1.55;;
40453;SDS011;26160;51.858;4.398;2022-08-07T15:19:09;5.78;;;1.50;;
40453;SDS011;26160;51.858;4.398;2022-08-07T15:21:41;4.13;;;1.63;;
40453;SDS011;26160;51.858;4.398;2022-08-07T15:24:21;3.40;;;1.63;;
40453;SDS011;26160;51.858;4.398;2022-08-07T15:27:05;1.77;;;1.40;;
40453;SDS011;26160;51.858;4.398;2022-08-07T15:29:44;7.15;;;1.75;;
40453;SDS011;26160;51.858;4.398;2022-08-07T15:32:14;2.95;;;2.00;;
40453;SDS011;26160;51.858;4.398;2022-08-07T15:34:43;3.50;;;1.70;;
40453;SDS011;26160;51.858;4.398;2022-08-07T15:37:13;2.22;;;1.10;;
40453;SDS011;26160;51.858;4.398;2022-08-07T15:39:45;3.25;;;1.52;;
40453;SDS011;26160;51.858;4.398;2022-08-07T15:45:06;5.60;;;1.92;;
40453;SDS011;26160;51.858;4.398;2022-08-07T15:47:37;2.63;;;1.48;;
40453;SDS011;26160;51.858;4.398;2022-08-07T15:50:09;3.15;;;1.33;;
40453;SDS011;26160;51.858;4.398;2022-08-07T15:52:40;1.98;;;1.42;;
40453;SDS011;26160;51.858;4.398;2022-08-07T15:55:10;7.45;;;1.92;;
40453;SDS011;26160;51.858;4.398;2022-08-07T15:57:43;3.45;;;1.52;;
40453;SDS011;26160;51.858;4.398;2022-08-07T16:00:16;3.70;;;1.75;;
40453;SDS011;26160;51.858;4.398;2022-08-07T16:02:46;11.13;;;2.70;;
40453;SDS011;26160;51.858;4.398;2022-08-07T16:05:18;2.75;;;1.65;;
40453;SDS011;26160;51.858;4.398;2022-08-07T16:07:51;8.48;;;2.10;;
40453;SDS011;26160;51.858;4.398;2022-08-07T16:10:21;3.15;;;2.00;;
40453;SDS011;26160;51.858;4.398;2022-08-07T16:34:26;4.03;;;1.90;;
40453;SDS011;26160;51.858;4.398;2022-08-07T16:39:56;5.82;;;2.10;;
40453;SDS011;26160;51.858;4.398;2022-08-07T16:43:09;4.82;;;1.80;;
40453;SDS011;26160;51.858;4.398;2022-08-07T16:51:32;4.63;;;2.00;;
40453;SDS011;26160;51.858;4.398;2022-08-07T17:07:51;6.82;;;2.60;;
40453;SDS011;26160;51.858;4.398;2022-08-07T17:15:31;8.15;;;3.47;;
40453;SDS011;26160;51.858;4.398;2022-08-07T17:18:17;4.88;;;2.38;;
40453;SDS011;26160;51.858;4.398;2022-08-07T17:20:57;5.72;;;2.30;;
40453;SDS011;26160;51.858;4.398;2022-08-07T17:23:39;3.38;;;2.40;;
40453;SDS011;26160;51.858;4.398;2022-08-07T17:26:16;4.25;;;2.17;;
40453;SDS011;26160;51.858;4.398;2022-08-07T17:29:12;3.58;;;1.85;;
40453;SDS011;26160;51.858;4.398;2022-08-07T17:31:50;5.70;;;1.80;;
40453;SDS011;26160;51.858;4.398;2022-08-07T17:34:44;6.47;;;2.60;;
40453;SDS011;26160;51.858;4.398;2022-08-07T17:37:19;4.82;;;2.58;;
40453;SDS011;26160;51.858;4.398;2022-08-07T17:39:57;2.67;;;2.13;;
40453;SDS011;26160;51.858;4.398;2022-08-07T17:47:45;3.58;;;2.28;;
40453;SDS011;26160;51.858;4.398;2022-08-07T17:50:19;5.97;;;2.60;;
40453;SDS011;26160;51.858;4.398;2022-08-07T17:53:12;3.90;;;2.30;;
40453;SDS011;26160;51.858;4.398;2022-08-07T17:55:52;3.15;;;1.85;;
40453;SDS011;26160;51.858;4.398;2022-08-07T18:01:13;3.30;;;2.45;;
40453;SDS011;26160;51.858;4.398;2022-08-07T18:03:52;8.77;;;2.58;;
40453;SDS011;26160;51.858;4.398;2022-08-07T18:06:33;6.88;;;2.60;;
40453;SDS011;26160;51.858;4.398;2022-08-07T18:09:04;5.05;;;2.40;;
40453;SDS011;26160;51.858;4.398;2022-08-07T18:11:47;8.15;;;2.60;;
40453;SDS011;26160;51.858;4.398;2022-08-07T18:14:42;5.70;;;2.40;;
40453;SDS011;26160;51.858;4.398;2022-08-07T18:20:05;3.88;;;2.30;;
40453;SDS011;26160;51.858;4.398;2022-08-07T18:25:32;3.33;;;2.40;;
40453;SDS011;26160;51.858;4.398;2022-08-07T18:41:21;4.53;;;2.40;;
40453;SDS011;26160;51.858;4.398;2022-08-07T18:47:10;6.38;;;2.95;;
40453;SDS011;26160;51.858;4.398;2022-08-07T18:50:09;5.97;;;2.53;;
40453;SDS011;26160;51.858;4.398;2022-08-07T18:59:17;3.53;;;2.35;;
40453;SDS011;26160;51.858;4.398;2022-08-07T19:01:33;4.72;;;2.85;;
40453;SDS011;26160;51.858;4.398;2022-08-07T19:04:15;4.75;;;2.53;;
40453;SDS011;26160;51.858;4.398;2022-08-07T19:07:00;5.10;;;2.45;;
40453;SDS011;26160;51.858;4.398;2022-08-07T19:09:32;5.07;;;2.55;;
40453;SDS011;26160;51.858;4.398;2022-08-07T19:12:13;2.53;;;2.10;;
40453;SDS011;26160;51.858;4.398;2022-08-07T19:17:42;6.07;;;2.70;;
40453;SDS011;26160;51.858;4.398;2022-08-07T19:20:31;7.35;;;2.80;;
40453;SDS011;26160;51.858;4.398;2022-08-07T19:23:07;4.93;;;2.78;;
40453;SDS011;26160;51.858;4.398;2022-08-07T19:25:58;4.80;;;2.58;;
40453;SDS011;26160;51.858;4.398;2022-08-07T19:28:26;4.82;;;2.13;;
40453;SDS011;26160;51.858;4.398;2022-08-07T19:30:57;6.95;;;2.38;;